메인 페이지
METAR-TAF:

METAR-TAF

공항 :

올보르, 덴마크

위도: 57-06N, 경도: 009-51E, 고도: 3m

현재 날씨관측

예보는 36분 전, 07:50시(UTC)에 발표되었습니다.
남남동4kt동남동풍과 풍을 오가는
온도 16°C
습도 88%
기압 1013 hPa
시정 10km 이상

METAR: EKYT 230750Z AUTO 15004KT 110V180 9999 OVC039/// 16/14 Q1013

시각: 10:26 (08:26 UTC)

예보

예보는 3 시간 21분 전, 05:05시(UTC)에 발표되었습니다.
예보 대상 시간: 23일 06시부터 24일 06시까지 (UTC)
4kt
시정 10km 이상
고도 2500ft 상공 구름 보통
일시적
23일 06시부터 23일 10시까지 (UTC)
시정: 6000m
고도 2000ft 상공 구름 조금, 적란운.
약한소나기
일시적
23일 10시부터 23일 22시까지 (UTC)
시정: 4000m
고도 1000ft 상공 구름 많음
고도 2000ft 상공 구름 보통, 적란운.
소나기
확률 40% :
일시적
23일 10시부터 23일 20시까지 (UTC)
뇌우, 비
전환 중
23일 15시부터 23일 18시까지 (UTC)
서북서4kt
확률 40%
24일 00시부터 24일 05시까지 (UTC)
시정: 2500m
곳곳에 안개,

TAF: EKYT 230505Z 2306/2406 18004KT 9999 SCT025 TEMPO 2306/2310 6000 -SHRA FEW020CB TEMPO 2310/2322 4000 SHRA BKN010 SCT020CB PROB40 TEMPO 2310/2320 TSRA BECMG 2315/2318 30004KT PROB40 2400/2405 2500 BCFG

4,000개 이상의 공항 관측 자료 및 예보 (METAR 및 TAF 보고).

지도상에서 검색 가능한 기상관측소가 노란 점과 빨간 점으로 표시되어 있습니다.

기상관측소 명을 보려면 표시 위로 마우스를 이동하세요.

날씨 관측과 예보를 보려면 클릭하세요.

지도 변경 : 확대하려면 엑스 표시가 있는 녹색 버튼, 축소하려면 빼기 표시가 있는 녹색 버튼, 다음 페이지의 지도를 보려면 녹색 화살표를 클릭하세요.


METAR-TAF: